sensor_id;sensor_type;location;lat;lon;timestamp;pressure;altitude;pressure_sealevel;temperature;humidity
35758;BME280;21879;50.110;18.900;2023-05-23T00:03:34;98410.20;;;16.28;50.75
35758;BME280;21879;50.110;18.900;2023-05-23T00:14:00;98407.65;;;16.06;50.93
35758;BME280;21879;50.110;18.900;2023-05-23T00:24:26;98400.58;;;15.84;51.21
35758;BME280;21879;50.110;18.900;2023-05-23T00:34:52;98402.23;;;15.61;51.67
35758;BME280;21879;50.110;18.900;2023-05-23T00:45:19;98411.09;;;15.53;52.14
35758;BME280;21879;50.110;18.900;2023-05-23T00:55:45;98406.66;;;15.38;52.32
35758;BME280;21879;50.110;18.900;2023-05-23T01:06:11;98402.48;;;15.22;52.28
35758;BME280;21879;50.110;18.900;2023-05-23T01:16:42;98398.67;;;15.10;52.97
35758;BME280;21879;50.110;18.900;2023-05-23T01:27:22;98400.12;;;14.92;53.00
35758;BME280;21879;50.110;18.900;2023-05-23T01:37:48;98398.20;;;14.75;53.05
35758;BME280;21879;50.110;18.900;2023-05-23T01:48:14;98396.09;;;14.65;53.35
35758;BME280;21879;50.110;18.900;2023-05-23T01:58:41;98390.02;;;14.45;53.47
35758;BME280;21879;50.110;18.900;2023-05-23T02:09:07;98381.95;;;14.27;53.93
35758;BME280;21879;50.110;18.900;2023-05-23T02:19:33;98378.68;;;14.13;54.04
35758;BME280;21879;50.110;18.900;2023-05-23T02:29:59;98379.57;;;13.95;54.21
35758;BME280;21879;50.110;18.900;2023-05-23T02:40:25;98378.95;;;13.73;54.22
35758;BME280;21879;50.110;18.900;2023-05-23T02:50:51;98378.63;;;13.59;54.53
35758;BME280;21879;50.110;18.900;2023-05-23T03:01:17;98383.89;;;13.45;54.61
35758;BME280;21879;50.110;18.900;2023-05-23T03:11:43;98371.73;;;13.36;54.75
35758;BME280;21879;50.110;18.900;2023-05-23T03:22:09;98368.56;;;13.30;54.99
35758;BME280;21879;50.110;18.900;2023-05-23T03:32:35;98364.36;;;13.15;54.92
35758;BME280;21879;50.110;18.900;2023-05-23T03:43:04;98360.05;;;13.20;55.45
35758;BME280;21879;50.110;18.900;2023-05-23T03:53:30;98356.05;;;13.27;55.51
35758;BME280;21879;50.110;18.900;2023-05-23T04:03:59;98354.73;;;13.24;55.59
35758;BME280;21879;50.110;18.900;2023-05-23T04:14:26;98355.21;;;13.26;55.75
35758;BME280;21879;50.110;18.900;2023-05-23T04:24:51;98353.02;;;13.30;56.10
35758;BME280;21879;50.110;18.900;2023-05-23T04:35:18;98357.04;;;13.56;57.15
35758;BME280;21879;50.110;18.900;2023-05-23T04:45:44;98344.77;;;14.13;57.75
35758;BME280;21879;50.110;18.900;2023-05-23T04:56:09;98336.63;;;14.84;57.74
35758;BME280;21879;50.110;18.900;2023-05-23T05:06:35;98336.11;;;15.67;57.74
35758;BME280;21879;50.110;18.900;2023-05-23T05:17:02;98329.14;;;16.63;57.79
35758;BME280;21879;50.110;18.900;2023-05-23T05:27:28;98317.56;;;17.56;56.75
35758;BME280;21879;50.110;18.900;2023-05-23T05:37:53;98322.95;;;18.13;55.24
35758;BME280;21879;50.110;18.900;2023-05-23T05:48:19;98314.70;;;18.39;53.99
35758;BME280;21879;50.110;18.900;2023-05-23T05:58:45;98311.02;;;18.75;53.35
35758;BME280;21879;50.110;18.900;2023-05-23T06:09:11;98298.66;;;19.23;52.80
35758;BME280;21879;50.110;18.900;2023-05-23T06:19:38;98300.44;;;19.87;51.97
35758;BME280;21879;50.110;18.900;2023-05-23T06:30:05;98291.06;;;20.32;50.74
35758;BME280;21879;50.110;18.900;2023-05-23T06:40:31;98279.91;;;20.92;49.65
35758;BME280;21879;50.110;18.900;2023-05-23T06:50:57;98265.68;;;21.56;49.01
35758;BME280;21879;50.110;18.900;2023-05-23T07:01:23;98262.20;;;22.07;48.18
35758;BME280;21879;50.110;18.900;2023-05-23T07:11:49;98252.77;;;22.46;47.46
35758;BME280;21879;50.110;18.900;2023-05-23T07:22:15;98242.59;;;22.88;47.50
35758;BME280;21879;50.110;18.900;2023-05-23T07:32:41;98234.79;;;23.20;47.21
35758;BME280;21879;50.110;18.900;2023-05-23T07:43:07;98228.67;;;23.47;46.65
35758;BME280;21879;50.110;18.900;2023-05-23T07:53:33;98232.75;;;23.59;46.26
35758;BME280;21879;50.110;18.900;2023-05-23T08:04:04;98221.43;;;23.44;45.67
35758;BME280;21879;50.110;18.900;2023-05-23T08:14:34;98214.15;;;23.44;45.11
35758;BME280;21879;50.110;18.900;2023-05-23T08:25:15;98216.46;;;23.54;44.97
35758;BME280;21879;50.110;18.900;2023-05-23T08:35:40;98210.52;;;23.63;44.18
35758;BME280;21879;50.110;18.900;2023-05-23T08:46:07;98206.48;;;23.75;43.91
35758;BME280;21879;50.110;18.900;2023-05-23T08:56:33;98199.30;;;23.96;43.66
35758;BME280;21879;50.110;18.900;2023-05-23T09:06:57;98197.85;;;23.99;42.26
35758;BME280;21879;50.110;18.900;2023-05-23T09:17:23;98200.67;;;23.89;42.01
35758;BME280;21879;50.110;18.900;2023-05-23T09:27:50;98194.32;;;24.03;41.34
35758;BME280;21879;50.110;18.900;2023-05-23T09:38:17;98191.77;;;24.31;41.24
35758;BME280;21879;50.110;18.900;2023-05-23T09:48:46;98188.95;;;24.41;41.44
35758;BME280;21879;50.110;18.900;2023-05-23T09:59:14;98178.11;;;24.43;41.54
35758;BME280;21879;50.110;18.900;2023-05-23T10:09:46;98160.86;;;24.48;41.00
35758;BME280;21879;50.110;18.900;2023-05-23T10:20:15;98147.90;;;24.53;41.34
35758;BME280;21879;50.110;18.900;2023-05-23T10:30:41;98141.13;;;24.51;41.57
35758;BME280;21879;50.110;18.900;2023-05-23T10:41:11;98132.58;;;24.53;41.69
35758;BME280;21879;50.110;18.900;2023-05-23T10:51:40;98137.71;;;24.60;42.49
35758;BME280;21879;50.110;18.900;2023-05-23T11:02:10;98133.42;;;24.68;42.57
35758;BME280;21879;50.110;18.900;2023-05-23T11:12:38;98124.02;;;24.61;42.01
35758;BME280;21879;50.110;18.900;2023-05-23T11:23:08;98106.39;;;24.73;43.36
35758;BME280;21879;50.110;18.900;2023-05-23T11:33:34;98101.32;;;24.85;42.99
35758;BME280;21879;50.110;18.900;2023-05-23T11:44:00;98090.81;;;24.95;42.10
35758;BME280;21879;50.110;18.900;2023-05-23T11:54:26;98092.23;;;24.88;42.35
35758;BME280;21879;50.110;18.900;2023-05-23T12:04:53;98096.98;;;24.77;43.36
35758;BME280;21879;50.110;18.900;2023-05-23T12:15:25;98109.44;;;24.70;44.11
35758;BME280;21879;50.110;18.900;2023-05-23T12:25:53;98127.02;;;24.03;43.00
35758;BME280;21879;50.110;18.900;2023-05-23T12:36:25;98130.76;;;23.00;43.71
35758;BME280;21879;50.110;18.900;2023-05-23T12:46:55;98146.16;;;22.32;45.72
35758;BME280;21879;50.110;18.900;2023-05-23T12:57:20;98146.21;;;21.80;47.40
35758;BME280;21879;50.110;18.900;2023-05-23T13:07:46;98142.35;;;21.65;49.33
35758;BME280;21879;50.110;18.900;2023-05-23T13:18:12;98133.61;;;21.77;50.79
35758;BME280;21879;50.110;18.900;2023-05-23T13:28:36;98133.66;;;21.74;50.68
35758;BME280;21879;50.110;18.900;2023-05-23T13:39:02;98142.12;;;21.72;51.02
35758;BME280;21879;50.110;18.900;2023-05-23T13:49:28;98157.15;;;21.61;51.07
35758;BME280;21879;50.110;18.900;2023-05-23T13:59:54;98179.75;;;21.70;50.96
35758;BME280;21879;50.110;18.900;2023-05-23T14:10:21;98184.14;;;21.65;51.48
35758;BME280;21879;50.110;18.900;2023-05-23T14:20:47;98178.36;;;21.75;52.08
35758;BME280;21879;50.110;18.900;2023-05-23T14:31:13;98180.55;;;21.66;52.06
35758;BME280;21879;50.110;18.900;2023-05-23T14:41:39;98173.36;;;21.50;52.19
35758;BME280;21879;50.110;18.900;2023-05-23T14:52:05;98160.52;;;21.41;52.54
35758;BME280;21879;50.110;18.900;2023-05-23T15:02:31;98152.84;;;21.48;52.93
35758;BME280;21879;50.110;18.900;2023-05-23T15:12:57;98152.68;;;21.56;52.98
35758;BME280;21879;50.110;18.900;2023-05-23T15:23:24;98157.48;;;21.58;52.62
35758;BME280;21879;50.110;18.900;2023-05-23T15:33:50;98158.02;;;21.64;53.03
35758;BME280;21879;50.110;18.900;2023-05-23T15:44:16;98163.48;;;21.75;53.61
35758;BME280;21879;50.110;18.900;2023-05-23T15:54:45;98159.25;;;21.86;53.95
35758;BME280;21879;50.110;18.900;2023-05-23T16:05:10;98154.58;;;21.87;53.81
35758;BME280;21879;50.110;18.900;2023-05-23T16:15:36;98155.17;;;21.78;54.07
35758;BME280;21879;50.110;18.900;2023-05-23T16:26:02;98153.28;;;21.79;54.24
35758;BME280;21879;50.110;18.900;2023-05-23T16:36:27;98148.10;;;21.78;53.94
35758;BME280;21879;50.110;18.900;2023-05-23T16:46:54;98147.39;;;21.80;54.50
35758;BME280;21879;50.110;18.900;2023-05-23T16:57:20;98151.80;;;21.78;54.41
35758;BME280;21879;50.110;18.900;2023-05-23T17:07:45;98153.52;;;21.73;54.51
35758;BME280;21879;50.110;18.900;2023-05-23T17:18:11;98158.71;;;21.67;54.96
35758;BME280;21879;50.110;18.900;2023-05-23T17:28:37;98164.14;;;21.42;56.01
35758;BME280;21879;50.110;18.900;2023-05-23T17:39:03;98180.30;;;21.26;56.79
35758;BME280;21879;50.110;18.900;2023-05-23T17:49:29;98184.15;;;21.27;56.84
35758;BME280;21879;50.110;18.900;2023-05-23T17:59:55;98189.02;;;21.14;56.80
35758;BME280;21879;50.110;18.900;2023-05-23T18:10:21;98189.80;;;21.04;57.31
35758;BME280;21879;50.110;18.900;2023-05-23T18:20:46;98193.89;;;20.98;57.86
35758;BME280;21879;50.110;18.900;2023-05-23T18:31:12;98201.64;;;20.92;58.00
35758;BME280;21879;50.110;18.900;2023-05-23T18:41:38;98225.51;;;20.80;58.43
35758;BME280;21879;50.110;18.900;2023-05-23T18:52:05;98250.36;;;20.69;58.50
35758;BME280;21879;50.110;18.900;2023-05-23T19:02:31;98261.14;;;20.47;58.91
35758;BME280;21879;50.110;18.900;2023-05-23T19:12:57;98266.46;;;20.30;59.39
35758;BME280;21879;50.110;18.900;2023-05-23T19:23:23;98274.96;;;20.23;59.79
35758;BME280;21879;50.110;18.900;2023-05-23T19:33:50;98277.15;;;20.22;60.04
35758;BME280;21879;50.110;18.900;2023-05-23T19:44:16;98276.55;;;20.10;60.26
35758;BME280;21879;50.110;18.900;2023-05-23T19:54:41;98278.89;;;20.07;60.58
35758;BME280;21879;50.110;18.900;2023-05-23T20:05:09;98281.59;;;20.06;60.66
35758;BME280;21879;50.110;18.900;2023-05-23T20:15:35;98283.97;;;19.91;61.10
35758;BME280;21879;50.110;18.900;2023-05-23T20:26:03;98288.10;;;19.93;61.13
35758;BME280;21879;50.110;18.900;2023-05-23T20:36:32;98293.63;;;19.95;61.25
35758;BME280;21879;50.110;18.900;2023-05-23T20:46:58;98301.79;;;19.91;61.21
35758;BME280;21879;50.110;18.900;2023-05-23T20:57:24;98312.21;;;19.87;61.40
35758;BME280;21879;50.110;18.900;2023-05-23T21:07:50;98318.77;;;19.93;61.55
35758;BME280;21879;50.110;18.900;2023-05-23T21:18:16;98324.02;;;19.98;61.48
35758;BME280;21879;50.110;18.900;2023-05-23T21:28:42;98333.13;;;19.96;61.51
35758;BME280;21879;50.110;18.900;2023-05-23T21:39:09;98341.80;;;19.89;61.61
35758;BME280;21879;50.110;18.900;2023-05-23T21:49:34;98346.82;;;19.63;61.77
35758;BME280;21879;50.110;18.900;2023-05-23T22:00:01;98353.78;;;19.34;62.48
35758;BME280;21879;50.110;18.900;2023-05-23T22:10:28;98358.40;;;19.26;63.07
35758;BME280;21879;50.110;18.900;2023-05-23T22:20:55;98361.59;;;19.29;63.23
35758;BME280;21879;50.110;18.900;2023-05-23T22:31:20;98357.81;;;19.38;63.34
35758;BME280;21879;50.110;18.900;2023-05-23T22:41:47;98358.84;;;19.42;63.12
35758;BME280;21879;50.110;18.900;2023-05-23T22:52:13;98360.70;;;19.36;63.12
35758;BME280;21879;50.110;18.900;2023-05-23T23:02:40;98354.33;;;19.33;63.27
35758;BME280;21879;50.110;18.900;2023-05-23T23:13:07;98347.95;;;19.30;63.33
35758;BME280;21879;50.110;18.900;2023-05-23T23:23:34;98345.08;;;19.24;63.37
35758;BME280;21879;50.110;18.900;2023-05-23T23:34:01;98347.77;;;19.20;63.50
35758;BME280;21879;50.110;18.900;2023-05-23T23:44:27;98344.46;;;19.15;63.87
35758;BME280;21879;50.110;18.900;2023-05-23T23:54:53;98342.96;;;19.11;64.00
